Time;durP1;ratioP1;P1;durP2;ratioP2;P2;SDS_P1;SDS_P2;PMS_P1;PMS_P2;Temp;Humidity;BMP_temperature;BMP_pressure;BME280_temperature;BME280_humidity;BME280_pressure;Samples;Min_cycle;Max_cycle;Signal;HPM_P1;HPM_P2
2021/01/16 00:02:01;;;;;;;;;;;23.00;34.40;;;;;;1627976;72;714;-60
2021/01/16 00:04:03;;;;;;;;;;;22.90;34.50;;;;;;1621941;72;779;-63
2021/01/16 00:06:05;;;;;;;;;;;22.90;34.50;;;;;;1636521;72;777;-61
2021/01/16 00:08:13;;;;;;;;;;;22.90;34.50;;;;;;1641566;72;1054;-62
2021/01/16 00:10:16;;;;;;;;;;;22.90;34.40;;;;;;1582228;73;686;-62
2021/01/16 00:12:17;;;;;;;;;;;22.90;34.40;;;;;;1596060;73;882;-62
2021/01/16 00:14:19;;;;;;;;;;;22.90;34.50;;;;;;1606641;73;1926;-61
2021/01/16 00:16:21;;;;;;;;;;;22.90;34.50;;;;;;1606700;74;1155;-61
2021/01/16 00:18:23;;;;;;;;;;;22.90;34.50;;;;;;1604653;73;805;-60
2021/01/16 00:20:26;;;;;;;;;;;22.90;34.50;;;;;;1593731;73;810;-60
2021/01/16 00:22:27;;;;;;;;;;;22.90;34.50;;;;;;1608142;73;751;-61
2021/01/16 00:24:30;;;;;;;;;;;22.90;34.50;;;;;;1607239;73;743;-61
2021/01/16 00:26:31;;;;;;;;;;;22.90;34.50;;;;;;1607150;73;1142;-63
2021/01/16 00:28:34;;;;;;;;;;;22.90;34.60;;;;;;1606738;73;810;-62
2021/01/16 00:30:36;;;;;;;;;;;22.90;34.60;;;;;;1606248;73;907;-61
2021/01/16 00:32:39;;;;;;;;;;;22.80;34.60;;;;;;1606635;73;694;-62
2021/01/16 00:34:41;;;;;;;;;;;22.90;34.70;;;;;;1607662;73;1920;-61
2021/01/16 00:36:43;;;;;;;;;;;22.80;34.70;;;;;;1598722;73;1104;-60
2021/01/16 00:38:45;;;;;;;;;;;22.80;34.70;;;;;;1606653;73;728;-61
2021/01/16 00:40:47;;;;;;;;;;;22.80;34.70;;;;;;1597243;73;719;-61
2021/01/16 00:42:50;;;;;;;;;;;22.70;34.80;;;;;;1595013;73;710;-60
2021/01/16 00:44:52;;;;;;;;;;;22.70;34.80;;;;;;1588973;73;744;-60
2021/01/16 00:46:54;;;;;;;;;;;22.80;34.80;;;;;;1596068;73;1128;-60
2021/01/16 00:48:55;;;;;;;;;;;22.80;34.70;;;;;;1594862;73;778;-60
2021/01/16 00:50:58;;;;;;;;;;;22.80;34.70;;;;;;1605500;73;702;-60
2021/01/16 00:53:00;;;;;;;;;;;22.80;34.70;;;;;;1597331;73;723;-60
2021/01/16 00:55:02;;;;;;;;;;;22.80;34.80;;;;;;1606894;73;1920;-60
2021/01/16 00:57:03;;;;;;;;;;;22.80;34.90;;;;;;1607778;73;1094;-60
2021/01/16 00:59:05;;;;;;;;;;;22.80;34.90;;;;;;1599711;73;692;-60
2021/01/16 01:01:07;;;;;;;;;;;22.80;35.00;;;;;;1606047;73;798;-61
2021/01/16 01:03:09;;;;;;;;;;;22.80;34.90;;;;;;1602251;73;598;-59
2021/01/16 01:05:12;;;;;;;;;;;22.80;34.80;;;;;;1608214;72;715;-60
2021/01/16 01:07:13;;;;;;;;;;;22.80;34.90;;;;;;1618537;72;1188;-60
2021/01/16 01:09:15;;;;;;;;;;;22.80;34.70;;;;;;1597753;73;782;-60
2021/01/16 01:11:17;;;;;;;;;;;22.90;34.80;;;;;;1603514;73;673;-59
2021/01/16 01:13:19;;;;;;;;;;;22.90;34.80;;;;;;1593237;73;753;-60
2021/01/16 01:15:21;;;;;;;;;;;23.00;34.70;;;;;;1611492;72;1933;-60
2021/01/16 01:17:23;;;;;;;;;;;22.90;34.60;;;;;;1622770;72;1143;-60
2021/01/16 01:19:25;;;;;;;;;;;22.90;34.50;;;;;;1619543;72;777;-60
2021/01/16 01:21:27;;;;;;;;;;;22.90;34.50;;;;;;1600919;72;736;-60
2021/01/16 01:23:28;;;;;;;;;;;23.00;34.50;;;;;;1608975;72;626;-60
2021/01/16 01:25:30;;;;;;;;;;;22.90;34.50;;;;;;1619302;72;677;-61
2021/01/16 01:27:32;;;;;;;;;;;22.90;34.50;;;;;;1628146;72;1127;-61
2021/01/16 01:29:34;;;;;;;;;;;22.90;34.50;;;;;;1608905;72;853;-61
2021/01/16 01:31:39;;;;;;;;;;;22.90;34.60;;;;;;1633805;72;747;-62
2021/01/16 01:33:41;;;;;;;;;;;22.90;34.60;;;;;;1615032;72;802;-61
2021/01/16 01:35:43;;;;;;;;;;;22.90;34.50;;;;;;1622548;72;1933;-62
2021/01/16 01:37:46;;;;;;;;;;;22.90;34.50;;;;;;1595265;73;1124;-60
2021/01/16 01:39:48;;;;;;;;;;;22.90;34.50;;;;;;1589339;73;768;-62
2021/01/16 01:41:50;;;;;;;;;;;22.90;34.60;;;;;;1592762;73;797;-60
2021/01/16 01:43:51;;;;;;;;;;;22.90;34.70;;;;;;1607125;73;681;-61
2021/01/16 01:45:53;;;;;;;;;;;22.90;34.70;;;;;;1607345;73;794;-61
2021/01/16 01:47:55;;;;;;;;;;;22.80;34.70;;;;;;1605963;73;1111;-61
2021/01/16 01:49:57;;;;;;;;;;;22.80;34.70;;;;;;1607428;73;900;-61
2021/01/16 01:52:00;;;;;;;;;;;22.80;34.80;;;;;;1608788;73;705;-60
2021/01/16 01:54:02;;;;;;;;;;;22.80;34.80;;;;;;1607317;73;795;-60
2021/01/16 01:56:04;;;;;;;;;;;22.90;34.90;;;;;;1607407;73;1940;-60
2021/01/16 01:58:05;;;;;;;;;;;22.90;34.90;;;;;;1606201;73;1024;-60
2021/01/16 02:00:08;;;;;;;;;;;23.00;34.90;;;;;;1586399;73;759;-60
2021/01/16 02:02:10;;;;;;;;;;;23.00;35.00;;;;;;1603510;73;771;-60
2021/01/16 02:04:11;;;;;;;;;;;23.00;34.90;;;;;;1603033;73;790;-60
2021/01/16 02:06:13;;;;;;;;;;;23.00;35.00;;;;;;1594394;73;786;-59
2021/01/16 02:08:15;;;;;;;;;;;23.00;34.90;;;;;;1608628;73;750;-61
2021/01/16 02:10:25;;;;;;;;;;;23.00;34.90;;;;;;1601458;73;794;-60
2021/01/16 02:12:24;;;;;;;;;;;23.10;35.00;;;;;;1603906;74;1201;-60
2021/01/16 02:14:28;;;;;;;;;;;23.10;35.00;;;;;;1607511;74;880;-60
2021/01/16 02:16:38;;;;;;;;;;;23.10;35.00;;;;;;1605219;73;1926;-60
2021/01/16 02:18:41;;;;;;;;;;;23.10;34.90;;;;;;1608955;73;722;-60
2021/01/16 02:20:43;;;;;;;;;;;23.10;35.00;;;;;;1562949;74;1061;-61
2021/01/16 02:22:53;;;;;;;;;;;23.10;35.20;;;;;;1609913;73;708;-61
2021/01/16 02:24:56;;;;;;;;;;;23.00;35.10;;;;;;1610117;73;705;-60
2021/01/16 02:27:06;;;;;;;;;;;23.00;35.20;;;;;;1601110;73;1632;-61
2021/01/16 02:29:09;;;;;;;;;;;23.00;35.30;;;;;;1604639;73;1899;-60
2021/01/16 02:31:10;;;;;;;;;;;23.00;35.20;;;;;;1608802;73;708;-61
2021/01/16 02:33:13;;;;;;;;;;;23.00;35.10;;;;;;1608512;73;744;-61
2021/01/16 02:35:15;;;;;;;;;;;23.10;35.20;;;;;;1612214;73;1939;-61
2021/01/16 02:37:22;;;;;;;;;;;23.00;35.10;;;;;;1622760;72;1146;-62
2021/01/16 02:39:37;;;;;;;;;;;23.00;35.00;;;;;;1626432;72;765;-61
2021/01/16 02:41:57;;;;;;;;;;;23.10;35.10;;;;;;1624491;72;1775;-61
2021/01/16 02:44:04;;;;;;;;;;;23.10;35.00;;;;;;1623297;72;838;-60
2021/01/16 02:46:16;;;;;;;;;;;23.10;35.10;;;;;;1625180;72;1867;-61
2021/01/16 02:48:19;;;;;;;;;;;23.00;35.00;;;;;;1622977;72;1308;-63
2021/01/16 02:50:22;;;;;;;;;;;23.10;35.20;;;;;;1623651;72;709;-62
2021/01/16 02:52:24;;;;;;;;;;;23.00;35.10;;;;;;1622439;72;668;-61
2021/01/16 02:54:26;;;;;;;;;;;23.00;35.10;;;;;;1624970;72;713;-62
2021/01/16 02:56:28;;;;;;;;;;;23.00;35.10;;;;;;1623350;72;1939;-61
2021/01/16 02:58:30;;;;;;;;;;;23.00;35.10;;;;;;1623889;72;744;-61
2021/01/16 03:00:32;;;;;;;;;;;23.00;35.10;;;;;;1594033;73;729;-61
2021/01/16 03:02:34;;;;;;;;;;;23.00;35.00;;;;;;1607925;73;752;-61
2021/01/16 03:04:36;;;;;;;;;;;23.10;35.20;;;;;;1610390;74;727;-61
2021/01/16 03:06:40;;;;;;;;;;;23.10;35.20;;;;;;1606280;73;1125;-61
2021/01/16 03:08:41;;;;;;;;;;;23.00;35.00;;;;;;1605204;73;1749;-61
2021/01/16 03:10:43;;;;;;;;;;;23.00;35.20;;;;;;1609978;73;797;-61
2021/01/16 03:12:45;;;;;;;;;;;23.00;35.10;;;;;;1607911;73;795;-61
2021/01/16 03:14:57;;;;;;;;;;;23.10;35.20;;;;;;1608512;73;779;-59
2021/01/16 03:17:00;;;;;;;;;;;23.10;35.20;;;;;;1602699;73;1940;-59
2021/01/16 03:19:02;;;;;;;;;;;23.10;35.20;;;;;;1606620;73;1042;-59
2021/01/16 03:21:04;;;;;;;;;;;23.00;35.00;;;;;;1605366;73;808;-60
2021/01/16 03:23:06;;;;;;;;;;;23.10;35.10;;;;;;1606672;73;764;-59
2021/01/16 03:25:08;;;;;;;;;;;23.00;35.10;;;;;;1600695;73;721;-59
2021/01/16 03:27:10;;;;;;;;;;;23.10;35.20;;;;;;1606783;73;1115;-59
2021/01/16 03:29:12;;;;;;;;;;;23.10;35.20;;;;;;1607750;73;712;-59
2021/01/16 03:31:14;;;;;;;;;;;23.10;35.20;;;;;;1603779;73;775;-58
2021/01/16 03:33:15;;;;;;;;;;;23.10;35.30;;;;;;1605855;73;783;-59
2021/01/16 03:35:18;;;;;;;;;;;23.00;35.20;;;;;;1610772;73;802;-60
2021/01/16 03:37:20;;;;;;;;;;;23.00;35.50;;;;;;1610689;73;1971;-59
2021/01/16 03:39:22;;;;;;;;;;;22.90;35.50;;;;;;1609195;73;729;-59
2021/01/16 03:41:24;;;;;;;;;;;22.90;35.60;;;;;;1606785;73;762;-59
2021/01/16 03:43:26;;;;;;;;;;;22.90;35.60;;;;;;1602759;73;778;-58
2021/01/16 03:45:28;;;;;;;;;;;23.00;35.60;;;;;;1609745;74;812;-59
2021/01/16 03:47:30;;;;;;;;;;;22.90;35.70;;;;;;1603879;73;1136;-59
2021/01/16 03:49:32;;;;;;;;;;;22.80;35.80;;;;;;1606905;73;779;-59
2021/01/16 03:51:34;;;;;;;;;;;22.80;35.90;;;;;;1607835;73;711;-58
2021/01/16 03:53:36;;;;;;;;;;;22.80;36.00;;;;;;1609065;73;713;-60
2021/01/16 03:55:38;;;;;;;;;;;22.70;36.10;;;;;;1605603;73;1929;-59
2021/01/16 03:57:40;;;;;;;;;;;22.70;36.20;;;;;;1610881;73;1119;-60
2021/01/16 03:59:41;;;;;;;;;;;22.70;36.80;;;;;;1607016;73;774;-59
2021/01/16 04:01:43;;;;;;;;;;;22.60;36.70;;;;;;1609835;73;691;-60
2021/01/16 04:03:45;;;;;;;;;;;22.70;36.90;;;;;;1609683;73;708;-60
2021/01/16 04:05:47;;;;;;;;;;;22.60;36.80;;;;;;1610272;73;726;-60
2021/01/16 04:07:50;;;;;;;;;;;22.70;36.80;;;;;;1611155;73;1151;-59
2021/01/16 04:09:51;;;;;;;;;;;22.70;36.80;;;;;;1607045;73;790;-60
2021/01/16 04:11:53;;;;;;;;;;;22.50;37.00;;;;;;1606114;73;666;-59
2021/01/16 04:13:55;;;;;;;;;;;22.60;37.20;;;;;;1607263;73;699;-59
2021/01/16 04:15:57;;;;;;;;;;;22.60;37.10;;;;;;1607596;73;1926;-60
2021/01/16 04:17:59;;;;;;;;;;;22.60;37.10;;;;;;1604331;73;1110;-59
2021/01/16 04:20:01;;;;;;;;;;;22.60;37.10;;;;;;1611106;73;722;-60
2021/01/16 04:22:03;;;;;;;;;;;22.60;37.10;;;;;;1602031;73;791;-59
2021/01/16 04:24:05;;;;;;;;;;;22.60;37.10;;;;;;1615726;72;896;-59
2021/01/16 04:26:07;;;;;;;;;;;22.60;37.20;;;;;;1648375;72;716;-60
2021/01/16 04:28:09;;;;;;;;;;;22.60;37.10;;;;;;1619676;72;1082;-60
2021/01/16 04:30:11;;;;;;;;;;;22.60;37.20;;;;;;1618157;72;734;-61
2021/01/16 04:32:13;;;;;;;;;;;22.60;37.70;;;;;;1611702;73;761;-61
2021/01/16 04:34:15;;;;;;;;;;;22.60;37.00;;;;;;1617409;72;713;-59
2021/01/16 04:36:17;;;;;;;;;;;22.60;37.00;;;;;;1613640;73;1930;-59
2021/01/16 04:38:19;;;;;;;;;;;22.70;36.90;;;;;;1627901;72;711;-59
2021/01/16 04:40:21;;;;;;;;;;;22.70;36.60;;;;;;1610333;72;695;-60
2021/01/16 04:42:22;;;;;;;;;;;22.70;36.50;;;;;;1614189;72;739;-60
2021/01/16 04:44:24;;;;;;;;;;;22.80;36.30;;;;;;1624230;72;712;-59
2021/01/16 04:46:26;;;;;;;;;;;22.90;36.30;;;;;;1627862;72;1107;-59
2021/01/16 04:48:28;;;;;;;;;;;22.90;36.20;;;;;;1617391;72;692;-60
2021/01/16 04:50:31;;;;;;;;;;;22.90;36.00;;;;;;1613972;72;692;-59
2021/01/16 04:52:33;;;;;;;;;;;23.00;35.90;;;;;;1622468;72;951;-60
2021/01/16 04:54:34;;;;;;;;;;;23.00;35.80;;;;;;1615806;72;753;-60
2021/01/16 04:56:36;;;;;;;;;;;23.00;35.70;;;;;;1627750;72;1924;-61
2021/01/16 04:58:39;;;;;;;;;;;23.00;35.80;;;;;;1612515;72;714;-59
2021/01/16 05:00:41;;;;;;;;;;;22.90;35.80;;;;;;1615891;72;727;-59
2021/01/16 05:02:43;;;;;;;;;;;22.90;35.90;;;;;;1628181;72;735;-59
2021/01/16 05:04:45;;;;;;;;;;;22.90;35.70;;;;;;1615203;72;780;-61
2021/01/16 05:06:47;;;;;;;;;;;22.90;35.70;;;;;;1620326;72;1118;-60
2021/01/16 05:08:49;;;;;;;;;;;22.90;35.80;;;;;;1583340;73;612;-61
2021/01/16 05:10:51;;;;;;;;;;;22.90;35.70;;;;;;1594565;73;803;-59
2021/01/16 05:12:54;;;;;;;;;;;22.90;35.70;;;;;;1577290;73;702;-58
2021/01/16 05:15:06;;;;;;;;;;;22.90;35.70;;;;;;1586853;74;1038;-59
2021/01/16 05:17:08;;;;;;;;;;;22.90;35.80;;;;;;1596299;73;1932;-60
2021/01/16 05:19:12;;;;;;;;;;;22.90;35.80;;;;;;1596409;73;716;-58
2021/01/16 05:21:14;;;;;;;;;;;22.90;35.80;;;;;;1608567;72;865;-59
2021/01/16 05:23:16;;;;;;;;;;;22.90;35.80;;;;;;1609418;72;731;-61
2021/01/16 05:25:18;;;;;;;;;;;22.90;35.70;;;;;;1610242;72;773;-59
2021/01/16 05:27:20;;;;;;;;;;;22.90;35.70;;;;;;1615071;72;1124;-59
2021/01/16 05:29:23;;;;;;;;;;;22.90;35.80;;;;;;1602484;72;797;-59
2021/01/16 05:31:24;;;;;;;;;;;22.90;35.90;;;;;;1602153;72;724;-59
2021/01/16 05:33:27;;;;;;;;;;;23.00;35.80;;;;;;1622077;72;722;-59
2021/01/16 05:35:29;;;;;;;;;;;23.00;35.70;;;;;;1611937;72;719;-59
2021/01/16 05:37:31;;;;;;;;;;;23.00;35.60;;;;;;1621908;72;1926;-59
2021/01/16 05:39:33;;;;;;;;;;;23.00;35.50;;;;;;1628046;72;677;-59
2021/01/16 05:41:35;;;;;;;;;;;23.00;35.50;;;;;;1623059;72;735;-58
2021/01/16 05:43:37;;;;;;;;;;;23.10;35.50;;;;;;1611412;72;688;-59
2021/01/16 05:45:39;;;;;;;;;;;23.00;35.50;;;;;;1608888;72;767;-59
2021/01/16 05:47:42;;;;;;;;;;;23.00;35.40;;;;;;1612692;72;1126;-60
2021/01/16 05:49:44;;;;;;;;;;;23.10;35.50;;;;;;1618451;72;739;-59
2021/01/16 05:51:46;;;;;;;;;;;23.10;35.70;;;;;;1625645;72;840;-60
2021/01/16 05:53:48;;;;;;;;;;;23.10;35.60;;;;;;1613730;72;838;-60
2021/01/16 05:55:50;;;;;;;;;;;23.10;35.60;;;;;;1616571;72;778;-60
2021/01/16 05:57:53;;;;;;;;;;;23.10;35.60;;;;;;1619422;72;1923;-60
2021/01/16 05:59:59;;;;;;;;;;;23.00;35.40;;;;;;1626094;72;1781;-59
2021/01/16 06:02:02;;;;;;;;;;;23.00;35.70;;;;;;1625994;72;742;-61
2021/01/16 06:04:04;;;;;;;;;;;23.00;35.70;;;;;;1622625;72;817;-60
2021/01/16 06:06:10;;;;;;;;;;;22.90;35.70;;;;;;1622640;72;755;-61
2021/01/16 06:08:12;;;;;;;;;;;23.00;35.70;;;;;;1613494;72;1163;-59
2021/01/16 06:10:14;;;;;;;;;;;22.90;35.70;;;;;;1624208;72;697;-59
2021/01/16 06:12:15;;;;;;;;;;;23.00;35.70;;;;;;1625071;72;829;-59
2021/01/16 06:14:18;;;;;;;;;;;22.90;35.50;;;;;;1615972;72;705;-58
2021/01/16 06:16:20;;;;;;;;;;;23.00;35.60;;;;;;1624525;72;1139;-59
2021/01/16 06:18:23;;;;;;;;;;;23.00;35.50;;;;;;1618112;72;737;-60
2021/01/16 06:20:24;;;;;;;;;;;23.00;35.50;;;;;;1617395;72;740;-61
2021/01/16 06:22:26;;;;;;;;;;;23.00;35.40;;;;;;1617992;72;696;-61
2021/01/16 06:24:28;;;;;;;;;;;23.10;35.50;;;;;;1619893;72;679;-59
2021/01/16 06:26:30;;;;;;;;;;;23.00;35.20;;;;;;1620371;72;1144;-60
2021/01/16 06:28:32;;;;;;;;;;;23.00;35.30;;;;;;1606136;72;671;-59
2021/01/16 06:30:34;;;;;;;;;;;22.90;35.20;;;;;;1624297;72;707;-59
2021/01/16 06:32:36;;;;;;;;;;;23.00;35.40;;;;;;1616447;72;781;-59
2021/01/16 06:34:38;;;;;;;;;;;23.00;35.20;;;;;;1613560;72;728;-59
2021/01/16 06:36:40;;;;;;;;;;;23.00;35.40;;;;;;1615261;72;1947;-58
2021/01/16 06:38:42;;;;;;;;;;;23.00;35.30;;;;;;1604476;72;739;-60
2021/01/16 06:40:44;;;;;;;;;;;23.00;35.20;;;;;;1606472;72;710;-58
2021/01/16 06:42:45;;;;;;;;;;;23.00;35.20;;;;;;1615191;72;727;-61
2021/01/16 06:44:47;;;;;;;;;;;23.00;35.10;;;;;;1610358;72;771;-60
2021/01/16 06:46:49;;;;;;;;;;;23.00;35.20;;;;;;1624037;72;1150;-60
2021/01/16 06:48:51;;;;;;;;;;;23.00;35.20;;;;;;1607416;72;698;-59
2021/01/16 06:50:53;;;;;;;;;;;23.00;35.20;;;;;;1611167;72;714;-60
2021/01/16 06:52:55;;;;;;;;;;;23.00;35.30;;;;;;1608689;72;718;-59
2021/01/16 06:54:57;;;;;;;;;;;23.00;35.40;;;;;;1625290;72;716;-60
2021/01/16 06:57:00;;;;;;;;;;;22.90;35.40;;;;;;1614442;72;1939;-59
2021/01/16 06:59:02;;;;;;;;;;;22.90;35.40;;;;;;1612386;72;1683;-59
2021/01/16 07:01:04;;;;;;;;;;;22.90;35.20;;;;;;1619720;72;789;-59
2021/01/16 07:03:06;;;;;;;;;;;23.00;35.40;;;;;;1619559;72;785;-59
2021/01/16 07:05:13;;;;;;;;;;;22.90;35.30;;;;;;1614565;72;771;-59
2021/01/16 07:07:15;;;;;;;;;;;23.00;35.50;;;;;;1617142;72;1757;-59
2021/01/16 07:09:20;;;;;;;;;;;23.00;35.30;;;;;;1576693;74;716;-60
2021/01/16 07:11:22;;;;;;;;;;;23.00;35.30;;;;;;1569152;74;704;-60
2021/01/16 07:13:23;;;;;;;;;;;23.00;35.20;;;;;;1595121;73;768;-60
2021/01/16 07:15:25;;;;;;;;;;;23.00;35.20;;;;;;1545355;76;722;-58
2021/01/16 07:17:27;;;;;;;;;;;23.00;35.20;;;;;;1551782;75;1933;-58
2021/01/16 07:19:30;;;;;;;;;;;23.00;35.20;;;;;;1545856;75;670;-59
2021/01/16 07:21:33;;;;;;;;;;;23.10;35.20;;;;;;1585870;73;681;-61
2021/01/16 07:23:34;;;;;;;;;;;23.10;35.00;;;;;;1604318;73;735;-59
2021/01/16 07:25:36;;;;;;;;;;;23.10;34.90;;;;;;1609591;73;754;-60
2021/01/16 07:27:38;;;;;;;;;;;23.10;35.00;;;;;;1609536;73;1119;-60
2021/01/16 07:29:41;;;;;;;;;;;23.10;34.90;;;;;;1592927;73;773;-60
2021/01/16 07:31:44;;;;;;;;;;;23.10;34.90;;;;;;1600357;73;825;-60
2021/01/16 07:33:46;;;;;;;;;;;23.10;35.00;;;;;;1554525;75;775;-59
2021/01/16 07:35:51;;;;;;;;;;;23.10;34.90;;;;;;1527700;76;1221;-59
2021/01/16 07:37:53;;;;;;;;;;;23.10;34.90;;;;;;1598412;73;1933;-60
2021/01/16 07:39:55;;;;;;;;;;;23.10;35.00;;;;;;1595914;73;810;-60
2021/01/16 07:41:57;;;;;;;;;;;23.10;34.90;;;;;;1609728;73;695;-58
2021/01/16 07:44:07;;;;;;;;;;;23.10;35.20;;;;;;1589411;73;696;-60
2021/01/16 07:46:10;;;;;;;;;;;23.10;35.20;;;;;;1596273;73;1686;-59
2021/01/16 07:48:12;;;;;;;;;;;23.10;35.00;;;;;;1590599;73;1113;-60
2021/01/16 07:50:24;;;;;;;;;;;23.10;35.00;;;;;;1570491;74;1076;-59
2021/01/16 07:52:27;;;;;;;;;;;23.10;35.00;;;;;;1603253;73;913;-58
2021/01/16 07:54:28;;;;;;;;;;;23.10;35.10;;;;;;1602681;73;795;-61
2021/01/16 07:56:41;;;;;;;;;;;23.10;35.10;;;;;;1605563;73;1143;-60
2021/01/16 07:58:49;;;;;;;;;;;23.10;35.10;;;;;;1606314;73;1916;-60
2021/01/16 08:01:05;;;;;;;;;;;23.00;35.10;;;;;;1611729;73;1084;-63
2021/01/16 08:03:14;;;;;;;;;;;23.10;35.20;;;;;;1622542;72;741;-62
2021/01/16 08:05:30;;;;;;;;;;;23.10;35.20;;;;;;1627224;72;2149;-62
2021/01/16 08:07:30;;;;;;;;;;;23.10;35.10;;;;;;1622246;72;1498;-62
2021/01/16 08:09:34;;;;;;;;;;;23.00;34.70;;;;;;1621152;72;983;-61
2021/01/16 08:11:36;;;;;;;;;;;23.00;34.70;;;;;;1626107;72;704;-62
2021/01/16 08:13:38;;;;;;;;;;;22.90;34.90;;;;;;1623282;72;998;-62
2021/01/16 08:15:41;;;;;;;;;;;22.90;34.70;;;;;;1621885;72;795;-61
2021/01/16 08:17:43;;;;;;;;;;;23.00;34.90;;;;;;1622224;73;1921;-62
2021/01/16 08:20:02;;;;;;;;;;;22.90;35.00;;;;;;1623535;72;691;-62
2021/01/16 08:22:04;;;;;;;;;;;23.00;34.90;;;;;;1625533;72;629;-61
2021/01/16 08:24:06;;;;;;;;;;;23.10;34.80;;;;;;1583687;73;977;-61
2021/01/16 08:26:08;;;;;;;;;;;23.00;34.70;;;;;;1618610;72;725;-60
2021/01/16 08:28:10;;;;;;;;;;;23.10;34.70;;;;;;1623374;72;1057;-59
2021/01/16 08:30:12;;;;;;;;;;;23.10;34.80;;;;;;1624318;73;783;-60
2021/01/16 08:32:15;;;;;;;;;;;23.20;34.50;;;;;;1627884;72;733;-59
2021/01/16 08:34:21;;;;;;;;;;;23.30;34.30;;;;;;1614030;72;702;-59
2021/01/16 08:36:23;;;;;;;;;;;23.40;34.20;;;;;;1594776;73;1398;-61
2021/01/16 08:38:25;;;;;;;;;;;23.40;34.00;;;;;;1611751;72;1956;-60
2021/01/16 08:40:37;;;;;;;;;;;23.50;34.00;;;;;;1623083;73;718;-59
2021/01/16 08:42:52;;;;;;;;;;;23.40;33.80;;;;;;1619606;72;729;-61
2021/01/16 08:44:54;;;;;;;;;;;23.40;33.80;;;;;;1589133;73;692;-59
2021/01/16 08:46:56;;;;;;;;;;;23.40;33.70;;;;;;1599962;73;1160;-61
2021/01/16 08:48:59;;;;;;;;;;;23.40;33.70;;;;;;1597398;73;1164;-59
2021/01/16 08:51:01;;;;;;;;;;;23.40;33.60;;;;;;1611734;73;728;-60
2021/01/16 08:53:21;;;;;;;;;;;23.40;33.60;;;;;;1597121;73;720;-59
2021/01/16 08:55:30;;;;;;;;;;;23.40;33.60;;;;;;1602877;73;714;-60
2021/01/16 08:57:35;;;;;;;;;;;23.40;33.50;;;;;;1598731;73;1925;-61
2021/01/16 08:59:38;;;;;;;;;;;23.40;33.50;;;;;;1591699;73;733;-59
2021/01/16 09:01:40;;;;;;;;;;;23.40;33.40;;;;;;1610773;73;719;-60
2021/01/16 09:03:41;;;;;;;;;;;23.40;33.30;;;;;;1599884;73;677;-59
2021/01/16 09:05:44;;;;;;;;;;;23.40;33.20;;;;;;1605788;73;735;-58
2021/01/16 09:07:46;;;;;;;;;;;23.40;33.20;;;;;;1597956;73;1097;-61
2021/01/16 09:09:51;;;;;;;;;;;23.40;33.20;;;;;;1596670;73;708;-61
2021/01/16 09:12:12;;;;;;;;;;;23.40;33.10;;;;;;1576433;73;731;-59
2021/01/16 09:14:14;;;;;;;;;;;23.40;33.10;;;;;;1583819;74;830;-59
2021/01/16 09:16:23;;;;;;;;;;;23.40;33.10;;;;;;1582360;74;1218;-59
2021/01/16 09:18:26;;;;;;;;;;;23.40;33.20;;;;;;1608761;72;1929;-62
2021/01/16 09:20:27;;;;;;;;;;;23.30;33.40;;;;;;1604021;73;836;-58
2021/01/16 09:22:31;;;;;;;;;;;23.20;33.70;;;;;;1599100;73;727;-59
2021/01/16 09:24:33;;;;;;;;;;;23.30;33.70;;;;;;1602330;73;734;-61
2021/01/16 09:26:35;;;;;;;;;;;23.20;33.60;;;;;;1606731;73;1223;-60
2021/01/16 09:28:40;;;;;;;;;;;23.20;33.50;;;;;;1588992;73;711;-59
2021/01/16 09:30:42;;;;;;;;;;;23.40;33.60;;;;;;1604829;74;737;-60
2021/01/16 09:32:44;;;;;;;;;;;23.30;33.50;;;;;;1585826;74;669;-62
2021/01/16 09:34:46;;;;;;;;;;;23.30;33.40;;;;;;1591314;73;684;-65
2021/01/16 09:36:48;;;;;;;;;;;23.40;33.50;;;;;;1588040;73;1148;-61
2021/01/16 09:38:50;;;;;;;;;;;23.40;33.50;;;;;;1586820;73;1933;-63
2021/01/16 09:40:52;;;;;;;;;;;23.30;33.40;;;;;;1596392;74;738;-70
2021/01/16 09:42:54;;;;;;;;;;;23.40;33.40;;;;;;1600280;73;717;-72
2021/01/16 09:44:56;;;;;;;;;;;23.40;33.40;;;;;;1598252;73;743;-68
2021/01/16 09:46:58;;;;;;;;;;;23.40;33.40;;;;;;1600355;73;1148;-70
2021/01/16 09:49:00;;;;;;;;;;;23.40;33.40;;;;;;1605974;74;732;-70
2021/01/16 09:51:02;;;;;;;;;;;23.30;33.40;;;;;;1611721;73;774;-69
2021/01/16 09:53:04;;;;;;;;;;;23.40;33.40;;;;;;1606976;73;673;-66
2021/01/16 09:55:08;;;;;;;;;;;23.40;33.40;;;;;;1605235;73;747;-70
2021/01/16 09:57:10;;;;;;;;;;;23.40;33.40;;;;;;1607052;73;1291;-69
2021/01/16 09:59:16;;;;;;;;;;;23.30;33.40;;;;;;1605735;73;1934;-69
2021/01/16 10:01:18;;;;;;;;;;;23.30;33.40;;;;;;1608879;73;1065;-67
2021/01/16 10:03:20;;;;;;;;;;;23.20;33.20;;;;;;1609216;73;749;-68
2021/01/16 10:05:29;;;;;;;;;;;23.30;33.30;;;;;;1572526;73;1141;-66
2021/01/16 10:07:32;;;;;;;;;;;23.20;33.20;;;;;;1606366;73;1147;-67
2021/01/16 10:09:36;;;;;;;;;;;23.20;33.20;;;;;;1604605;73;1712;-66
2021/01/16 10:11:42;;;;;;;;;;;23.30;33.30;;;;;;1608236;73;1783;-67
2021/01/16 10:13:44;;;;;;;;;;;23.20;33.20;;;;;;1606299;73;1620;-72
2021/01/16 10:15:48;;;;;;;;;;;23.20;33.20;;;;;;1598271;73;677;-68
2021/01/16 10:17:53;;;;;;;;;;;23.20;33.20;;;;;;1596631;74;1924;-70
2021/01/16 10:19:56;;;;;;;;;;;23.20;33.10;;;;;;1588373;73;830;-71
2021/01/16 10:21:59;;;;;;;;;;;23.20;33.20;;;;;;1600164;73;1927;-72
2021/01/16 10:24:02;;;;;;;;;;;23.20;33.20;;;;;;1586709;73;726;-68
2021/01/16 10:26:08;;;;;;;;;;;23.20;33.10;;;;;;1619096;72;944;-67
2021/01/16 10:28:13;;;;;;;;;;;23.20;33.10;;;;;;1615922;72;1140;-65
2021/01/16 10:30:18;;;;;;;;;;;23.20;33.20;;;;;;1593235;73;1598;-64
2021/01/16 10:32:23;;;;;;;;;;;23.20;33.30;;;;;;1631391;71;751;-64
2021/01/16 10:34:26;;;;;;;;;;;23.10;33.30;;;;;;1631167;71;711;-66
2021/01/16 10:36:28;;;;;;;;;;;23.00;33.70;;;;;;1623319;71;1591;-65
2021/01/16 10:38:47;;;;;;;;;;;22.90;34.10;;;;;;1623744;71;1923;-67
2021/01/16 10:40:52;;;;;;;;;;;23.00;34.70;;;;;;1611928;71;817;-67
2021/01/16 10:42:54;;;;;;;;;;;22.80;35.20;;;;;;1627413;71;716;-65
2021/01/16 10:44:58;;;;;;;;;;;22.80;35.70;;;;;;1618372;71;793;-67
2021/01/16 10:47:01;;;;;;;;;;;22.80;36.00;;;;;;1627614;71;1771;-65
2021/01/16 10:49:17;;;;;;;;;;;22.90;36.80;;;;;;1595848;74;802;-67
2021/01/16 10:51:20;;;;;;;;;;;22.90;37.90;;;;;;1550390;74;761;-63
2021/01/16 10:53:24;;;;;;;;;;;22.90;37.50;;;;;;1593178;73;1781;-62
2021/01/16 10:55:25;;;;;;;;;;;22.90;37.10;;;;;;1597603;73;1661;-60
2021/01/16 10:57:41;;;;;;;;;;;23.00;36.50;;;;;;1608833;72;1158;-61
2021/01/16 10:59:56;;;;;;;;;;;23.10;36.10;;;;;;1639791;72;1947;-62
2021/01/16 11:01:59;;;;;;;;;;;23.10;35.70;;;;;;1645577;72;750;-62
2021/01/16 11:04:02;;;;;;;;;;;23.20;35.40;;;;;;1630842;72;808;-63
2021/01/16 11:06:12;;;;;;;;;;;23.30;35.40;;;;;;1616741;72;690;-62
2021/01/16 11:08:18;;;;;;;;;;;23.30;35.20;;;;;;1628519;73;1590;-63
2021/01/16 11:10:18;;;;;;;;;;;23.30;35.10;;;;;;1613866;72;1546;-63
2021/01/16 11:12:24;;;;;;;;;;;23.40;35.10;;;;;;1616348;72;769;-62
2021/01/16 11:14:33;;;;;;;;;;;23.40;35.00;;;;;;1623736;72;783;-61
2021/01/16 11:16:37;;;;;;;;;;;23.30;35.00;;;;;;1628370;72;1135;-62
2021/01/16 11:18:41;;;;;;;;;;;23.20;35.10;;;;;;1612195;73;1933;-64
2021/01/16 11:20:42;;;;;;;;;;;23.20;35.20;;;;;;1601766;72;1632;-64
2021/01/16 11:22:45;;;;;;;;;;;23.20;35.00;;;;;;1589885;73;1186;-63
2021/01/16 11:24:55;;;;;;;;;;;23.20;35.40;;;;;;1595241;73;802;-64
2021/01/16 11:26:56;;;;;;;;;;;23.30;35.50;;;;;;1597160;73;1131;-64
2021/01/16 11:28:58;;;;;;;;;;;23.20;35.40;;;;;;1589470;74;718;-62
2021/01/16 11:31:07;;;;;;;;;;;23.20;35.40;;;;;;1588519;74;772;-63
2021/01/16 11:33:13;;;;;;;;;;;23.20;35.20;;;;;;1562391;74;718;-62
2021/01/16 11:35:14;;;;;;;;;;;23.20;35.20;;;;;;1609464;74;783;-61
2021/01/16 11:37:16;;;;;;;;;;;23.20;35.10;;;;;;1609641;74;1191;-62
2021/01/16 11:39:37;;;;;;;;;;;23.10;35.10;;;;;;1618635;72;1928;-64
2021/01/16 11:41:52;;;;;;;;;;;23.10;35.20;;;;;;1594969;73;720;-64
2021/01/16 11:43:56;;;;;;;;;;;23.00;35.20;;;;;;1596145;73;705;-61
2021/01/16 11:46:04;;;;;;;;;;;23.10;35.20;;;;;;1577055;73;729;-65
2021/01/16 11:48:06;;;;;;;;;;;23.10;35.20;;;;;;1584681;74;1112;-64
2021/01/16 11:50:08;;;;;;;;;;;23.10;35.20;;;;;;1561560;74;799;-63
2021/01/16 11:52:10;;;;;;;;;;;23.20;35.10;;;;;;1573677;74;779;-65
2021/01/16 11:54:12;;;;;;;;;;;23.30;34.80;;;;;;1604797;73;754;-63
2021/01/16 11:56:15;;;;;;;;;;;23.40;34.70;;;;;;1608666;73;770;-64
2021/01/16 11:58:17;;;;;;;;;;;23.40;34.70;;;;;;1610084;73;1936;-64
2021/01/16 12:00:19;;;;;;;;;;;23.40;34.40;;;;;;1607516;73;736;-63
2021/01/16 12:02:21;;;;;;;;;;;23.40;34.30;;;;;;1608452;73;702;-64
2021/01/16 12:04:22;;;;;;;;;;;23.40;34.20;;;;;;1604932;73;710;-63
2021/01/16 12:06:24;;;;;;;;;;;23.40;34.10;;;;;;1608064;73;1080;-64
2021/01/16 12:08:26;;;;;;;;;;;23.40;34.00;;;;;;1607882;73;618;-63
2021/01/16 12:10:28;;;;;;;;;;;23.40;33.90;;;;;;1599048;73;751;-63
2021/01/16 12:12:31;;;;;;;;;;;23.40;33.90;;;;;;1611183;73;668;-62
2021/01/16 12:14:34;;;;;;;;;;;23.10;33.80;;;;;;1607197;73;746;-62
2021/01/16 12:16:36;;;;;;;;;;;23.40;33.90;;;;;;1608293;73;1128;-63